createdAt,value
2022-10-04T00:00:45.721Z,95114.38
2022-10-04T00:03:12.134Z,95111.09
2022-10-04T00:05:38.420Z,95113.20
2022-10-04T00:08:04.797Z,95124.27
2022-10-04T00:10:31.154Z,95123.29
2022-10-04T00:12:57.497Z,95107.16
2022-10-04T00:15:23.857Z,95107.16
2022-10-04T00:17:50.206Z,95125.41
2022-10-04T00:20:16.558Z,95121.05
2022-10-04T00:22:42.907Z,95121.05
2022-10-04T00:25:09.252Z,95120.70
2022-10-04T00:27:35.600Z,95119.21
2022-10-04T00:30:01.943Z,95101.05
2022-10-04T00:32:28.393Z,95101.05
2022-10-04T00:34:54.741Z,95111.72
2022-10-04T00:37:21.097Z,95108.17
2022-10-04T00:39:47.455Z,95105.23
2022-10-04T00:42:13.785Z,95101.00
2022-10-04T00:44:40.130Z,95101.00
2022-10-04T00:47:06.472Z,95098.13
2022-10-04T00:49:32.818Z,95097.11
2022-10-04T00:51:59.157Z,95088.39
2022-10-04T00:54:25.513Z,95084.16
2022-10-04T00:56:51.861Z,95077.68
2022-10-04T00:59:18.219Z,95077.36
2022-10-04T01:01:45.095Z,95072.17
2022-10-04T01:04:10.907Z,95073.48
2022-10-04T01:06:37.294Z,95082.20
2022-10-04T01:09:03.599Z,95081.84
2022-10-04T01:11:29.942Z,95082.32
2022-10-04T01:13:56.277Z,95088.95
2022-10-04T01:16:22.659Z,95084.12
2022-10-04T01:18:48.978Z,95082.32
2022-10-04T01:21:15.315Z,95067.52
2022-10-04T01:23:41.664Z,95067.52
2022-10-04T01:26:08.005Z,95081.62
2022-10-04T01:28:34.441Z,95071.06
2022-10-04T01:31:00.756Z,95069.14
2022-10-04T01:33:27.069Z,95075.52
2022-10-04T01:35:53.411Z,95076.09
2022-10-04T01:38:19.756Z,95079.98
2022-10-04T01:43:30.358Z,95079.50
2022-10-04T01:45:56.742Z,95063.98
2022-10-04T01:48:23.092Z,95063.98
2022-10-04T01:50:49.432Z,95078.96
2022-10-04T01:53:15.801Z,95065.53
2022-10-04T01:55:42.140Z,95079.31
2022-10-04T01:58:08.470Z,95047.63
2022-10-04T02:00:34.814Z,95075.23
2022-10-04T02:03:01.151Z,95072.64
2022-10-04T02:05:27.490Z,95080.89
2022-10-04T02:07:53.825Z,95079.87
2022-10-04T02:10:20.187Z,95084.70
2022-10-04T02:12:46.499Z,95089.41
2022-10-04T02:15:12.842Z,95087.77
2022-10-04T02:17:39.183Z,95055.30
2022-10-04T02:20:05.529Z,95096.84
2022-10-04T02:22:31.866Z,95089.50
2022-10-04T02:24:58.262Z,95097.11
2022-10-04T02:27:24.595Z,95098.56
2022-10-04T02:29:50.964Z,95092.84
2022-10-04T02:32:17.293Z,95101.75
2022-10-04T02:34:43.632Z,95102.72
2022-10-04T02:37:09.968Z,95099.63
2022-10-04T02:39:36.302Z,95101.43
2022-10-04T02:42:02.692Z,95094.14
2022-10-04T02:44:29.010Z,95104.14
2022-10-04T02:46:55.466Z,95110.62
2022-10-04T02:49:21.680Z,95101.56
2022-10-04T02:51:48.021Z,95123.73
2022-10-04T02:54:14.365Z,95123.17
2022-10-04T02:56:40.695Z,95128.01
2022-10-04T02:59:07.043Z,95123.97
2022-10-04T03:01:33.372Z,95123.92
2022-10-04T03:03:59.724Z,95128.48
2022-10-04T03:06:26.059Z,95126.71
2022-10-04T03:08:52.403Z,95130.25
2022-10-04T03:11:18.736Z,95128.95
2022-10-04T03:13:45.118Z,95137.70
2022-10-04T03:16:11.476Z,95131.70
2022-10-04T03:18:37.793Z,95134.09
2022-10-04T03:21:04.128Z,95133.27
2022-10-04T03:23:30.485Z,95139.11
2022-10-04T03:25:56.821Z,95118.59
2022-10-04T03:28:23.234Z,95138.45
2022-10-04T03:30:49.496Z,95138.45
2022-10-04T03:33:15.829Z,95143.47
2022-10-04T03:35:42.161Z,95142.65
2022-10-04T03:38:08.503Z,95145.20
2022-10-04T03:40:34.865Z,95150.02
2022-10-04T03:43:01.197Z,95155.88
2022-10-04T03:45:27.599Z,95149.87
2022-10-04T03:47:53.898Z,95163.37
2022-10-04T03:50:20.269Z,95163.88
2022-10-04T03:52:46.606Z,95162.70
2022-10-04T03:55:12.960Z,95161.13
2022-10-04T03:57:39.286Z,95163.37
2022-10-04T04:00:05.752Z,95158.19
2022-10-04T04:02:32.162Z,95160.50
2022-10-04T04:04:58.450Z,95161.41
2022-10-04T04:07:24.789Z,95157.79
2022-10-04T04:09:51.126Z,95163.64
2022-10-04T04:12:17.467Z,95157.31
2022-10-04T04:14:43.799Z,95162.03
2022-10-04T04:17:10.143Z,95162.30
2022-10-04T04:19:36.584Z,95166.86
2022-10-04T04:22:02.928Z,95169.80
2022-10-04T04:24:29.259Z,95174.00
2022-10-04T04:26:55.612Z,95175.09
2022-10-04T04:29:21.958Z,95164.05
2022-10-04T04:31:48.390Z,95165.67
2022-10-04T04:34:14.649Z,95170.46
2022-10-04T04:36:40.982Z,95187.92
2022-10-04T04:39:07.315Z,95186.48
2022-10-04T04:41:33.657Z,95191.54
2022-10-04T04:43:59.992Z,95191.19
2022-10-04T04:46:27.990Z,95189.27
2022-10-04T04:48:52.708Z,95190.52
2022-10-04T04:51:19.045Z,95190.52
2022-10-04T04:53:45.382Z,95190.36
2022-10-04T04:56:15.182Z,95195.07
2022-10-04T04:58:38.133Z,95195.81
2022-10-04T05:01:04.551Z,95194.98
2022-10-04T05:03:30.802Z,95193.22
2022-10-04T05:05:57.144Z,95194.05
2022-10-04T05:08:23.558Z,95197.30
2022-10-04T05:10:49.921Z,95201.38
2022-10-04T05:13:16.252Z,95199.68
2022-10-04T05:15:42.650Z,95199.14
2022-10-04T05:18:08.982Z,95208.20
2022-10-04T05:20:35.357Z,95201.38
2022-10-04T05:23:01.690Z,95199.97
2022-10-04T05:25:28.025Z,95205.41
2022-10-04T05:27:54.391Z,95204.05
2022-10-04T05:30:20.711Z,95194.50
2022-10-04T05:32:47.039Z,95212.09
2022-10-04T05:35:13.385Z,95208.01
2022-10-04T05:37:39.717Z,95215.98
2022-10-04T05:40:06.053Z,95223.48
2022-10-04T05:42:32.391Z,95218.09
2022-10-04T05:44:58.730Z,95200.05
2022-10-04T05:47:25.071Z,95226.25
2022-10-04T05:49:51.422Z,95235.58
2022-10-04T05:52:17.753Z,95235.58
2022-10-04T05:54:44.098Z,95232.52
2022-10-04T05:57:10.451Z,95236.02
2022-10-04T05:59:36.794Z,95240.45
2022-10-04T06:02:03.198Z,95242.08
2022-10-04T06:04:29.508Z,95232.05
2022-10-04T06:06:55.851Z,95244.28
2022-10-04T06:09:22.217Z,95251.02
2022-10-04T06:11:48.548Z,95253.97
2022-10-04T06:14:14.887Z,95261.58
2022-10-04T06:16:41.283Z,95264.91
2022-10-04T06:19:07.563Z,95257.03
2022-10-04T06:21:33.895Z,95275.83
2022-10-04T06:24:00.281Z,95272.50
2022-10-04T06:26:26.621Z,95276.75
2022-10-04T06:28:52.997Z,95276.75
2022-10-04T06:31:19.417Z,95278.69
2022-10-04T06:33:45.687Z,95292.39
2022-10-04T06:36:12.049Z,95296.37
2022-10-04T06:38:38.374Z,95295.45
2022-10-04T06:41:04.715Z,95286.27
2022-10-04T06:43:31.052Z,95291.66
2022-10-04T06:45:57.446Z,95283.89
2022-10-04T06:48:23.755Z,95297.11
2022-10-04T06:50:50.201Z,95297.11
2022-10-04T06:53:16.573Z,95291.74
2022-10-04T06:55:42.886Z,95291.74
2022-10-04T06:58:09.249Z,95297.52
2022-10-04T07:00:35.588Z,95298.02
2022-10-04T07:03:01.924Z,95286.48
2022-10-04T07:05:28.254Z,95286.48
2022-10-04T07:07:54.601Z,95304.28
2022-10-04T07:10:20.943Z,95306.55
2022-10-04T07:12:47.288Z,95302.95
2022-10-04T07:15:13.641Z,95305.54
2022-10-04T07:17:39.987Z,95303.50
2022-10-04T07:20:06.329Z,95305.00
2022-10-04T07:22:32.683Z,95302.80
2022-10-04T07:24:59.015Z,95306.13
2022-10-04T07:27:25.392Z,95320.94
2022-10-04T07:29:51.740Z,95318.70
2022-10-04T07:32:18.078Z,95322.03
2022-10-04T07:34:44.417Z,95325.91
2022-10-04T07:37:10.758Z,95326.09
2022-10-04T07:39:37.089Z,95317.06
2022-10-04T07:42:03.466Z,95322.52
2022-10-04T07:44:29.814Z,95322.52
2022-10-04T07:46:56.151Z,95315.02
2022-10-04T07:49:22.502Z,95330.69
2022-10-04T07:51:48.833Z,95332.11
2022-10-04T07:54:15.191Z,95336.00
2022-10-04T07:56:41.532Z,95331.64
2022-10-04T07:59:07.882Z,95337.71
2022-10-04T08:01:34.283Z,95338.27
2022-10-04T08:04:00.569Z,95339.20
2022-10-04T08:06:26.908Z,95342.56
2022-10-04T08:08:53.261Z,95337.02
2022-10-04T08:11:19.609Z,95336.08
2022-10-04T08:13:45.950Z,95337.53
2022-10-04T08:16:12.379Z,95329.88
2022-10-04T08:18:38.703Z,95331.25
2022-10-04T08:21:05.042Z,95334.39
2022-10-04T08:23:31.396Z,95331.06
2022-10-04T08:25:57.747Z,95332.75
2022-10-04T08:28:24.135Z,95324.11
2022-10-04T08:30:50.493Z,95332.48
2022-10-04T08:33:16.783Z,95330.36
2022-10-04T08:35:43.136Z,95325.17
2022-10-04T08:38:09.496Z,95326.47
2022-10-04T08:40:35.878Z,95328.12
2022-10-04T08:43:03.607Z,95321.17
2022-10-04T08:45:28.554Z,95295.63
2022-10-04T08:47:54.897Z,95295.63
2022-10-04T08:50:22.462Z,95313.19
2022-10-04T08:52:47.582Z,95314.25
2022-10-04T08:55:13.927Z,95310.88
2022-10-04T08:57:40.276Z,95309.34
2022-10-04T09:00:06.612Z,95311.81
2022-10-04T09:02:33.048Z,95312.41
2022-10-04T09:04:59.304Z,95317.82
2022-10-04T09:07:25.680Z,95304.44
2022-10-04T09:09:52.016Z,95289.52
2022-10-04T09:12:18.362Z,95291.16
2022-10-04T09:14:44.707Z,95304.59
2022-10-04T09:17:11.055Z,95305.34
2022-10-04T09:19:37.409Z,95310.18
2022-10-04T09:22:03.777Z,95309.62
2022-10-04T09:24:30.115Z,95316.34
2022-10-04T09:26:56.464Z,95311.28
2022-10-04T09:29:22.796Z,95317.56
2022-10-04T09:31:49.139Z,95325.53
2022-10-04T09:34:15.477Z,95329.03
2022-10-04T09:36:42.089Z,95333.39
2022-10-04T09:39:28.944Z,95328.80
2022-10-04T09:41:34.537Z,95325.41
2022-10-04T09:44:00.868Z,95326.20
2022-10-04T09:46:27.262Z,95328.76
2022-10-04T09:48:53.547Z,95332.03
2022-10-04T09:51:19.889Z,95322.48
2022-10-04T09:53:46.225Z,95322.95
2022-10-04T09:56:12.567Z,95326.22
2022-10-04T09:58:38.908Z,95320.75
2022-10-04T10:01:05.269Z,95312.78
2022-10-04T10:03:31.617Z,95313.59
2022-10-04T10:05:57.966Z,95322.40
2022-10-04T10:08:28.097Z,95320.91
2022-10-04T10:10:50.653Z,95328.56
2022-10-04T10:13:17.007Z,95314.22
2022-10-04T10:15:43.404Z,95325.89
2022-10-04T10:18:09.705Z,95331.28
2022-10-04T10:20:36.044Z,95324.45
2022-10-04T10:23:02.381Z,95328.02
2022-10-04T10:25:28.723Z,95333.32
2022-10-04T10:27:55.140Z,95328.69
2022-10-04T10:30:21.450Z,95334.70
2022-10-04T10:32:47.791Z,95324.27
2022-10-04T10:35:14.141Z,95323.77
2022-10-04T10:37:40.489Z,95334.81
2022-10-04T10:40:06.912Z,95334.77
2022-10-04T10:42:33.252Z,95334.77
2022-10-04T10:44:59.594Z,95335.37
2022-10-04T10:47:25.938Z,95331.91
2022-10-04T10:49:52.288Z,95336.54
2022-10-04T10:52:18.620Z,95337.41
2022-10-04T10:54:44.996Z,95344.59
2022-10-04T10:57:11.327Z,95345.07
2022-10-04T10:59:37.664Z,95331.28
2022-10-04T11:02:04.137Z,95341.73
2022-10-04T11:04:30.367Z,95329.03
2022-10-04T11:06:56.732Z,95334.22
2022-10-04T11:09:23.067Z,95333.23
2022-10-04T11:11:49.418Z,95332.60
2022-10-04T11:14:15.762Z,95342.16
2022-10-04T11:16:42.212Z,95337.72
2022-10-04T11:19:08.444Z,95334.55
2022-10-04T11:21:34.786Z,95334.70
2022-10-04T11:24:01.132Z,95325.22
2022-10-04T11:26:27.474Z,95335.07
2022-10-04T11:28:53.866Z,95332.65
2022-10-04T11:31:20.243Z,95329.53
2022-10-04T11:33:46.612Z,95338.80
2022-10-04T11:36:12.959Z,95340.45
2022-10-04T11:38:39.316Z,95333.89
2022-10-04T11:41:05.660Z,95333.89
2022-10-04T11:43:31.997Z,95334.08
2022-10-04T11:45:58.352Z,95335.61
2022-10-04T11:48:24.705Z,95336.13
2022-10-04T11:50:51.051Z,95343.17
2022-10-04T11:53:17.406Z,95340.64
2022-10-04T11:55:43.771Z,95334.98
2022-10-04T11:58:12.114Z,95337.14
2022-10-04T12:00:36.605Z,95339.20
2022-10-04T12:03:03.009Z,95342.13
2022-10-04T12:05:29.277Z,95344.66
2022-10-04T12:07:55.625Z,95313.33
2022-10-04T12:10:21.983Z,95343.30
2022-10-04T12:12:48.364Z,95345.73
2022-10-04T12:15:14.723Z,95337.00
2022-10-04T12:17:41.078Z,95340.55
2022-10-04T12:20:11.915Z,95338.69
2022-10-04T12:22:33.779Z,95336.09
2022-10-04T12:25:00.137Z,95339.38
2022-10-04T12:27:26.466Z,95328.65
2022-10-04T12:29:52.831Z,95337.27
2022-10-04T12:32:19.188Z,95340.52
2022-10-04T12:34:45.560Z,95343.12
2022-10-04T12:37:11.925Z,95339.86
2022-10-04T12:39:38.263Z,95342.10
2022-10-04T12:42:04.636Z,95343.12
2022-10-04T12:44:30.994Z,95325.67
2022-10-04T12:46:57.341Z,95342.05
2022-10-04T12:49:23.725Z,95343.37
2022-10-04T12:51:50.072Z,95338.89
2022-10-04T12:54:16.416Z,95338.53
2022-10-04T12:56:43.093Z,95341.33
2022-10-04T12:59:09.159Z,95347.97
2022-10-04T13:01:35.610Z,95342.43
2022-10-04T13:04:01.855Z,95342.78
2022-10-04T13:06:28.204Z,95346.95
2022-10-04T13:08:54.542Z,95340.31
2022-10-04T13:11:20.884Z,95342.15
2022-10-04T13:13:47.224Z,95338.41
2022-10-04T13:18:39.918Z,95342.30
2022-10-04T13:21:06.275Z,95337.44
2022-10-04T13:23:32.643Z,95333.38
2022-10-04T13:26:03.554Z,95337.94
2022-10-04T13:28:25.445Z,95337.94
2022-10-04T13:30:51.687Z,95337.37
2022-10-04T13:33:18.027Z,95338.29
2022-10-04T13:35:44.524Z,95339.53
2022-10-04T13:38:10.830Z,95341.39
2022-10-04T13:40:37.188Z,95342.41
2022-10-04T13:43:03.533Z,95350.20
2022-10-04T13:45:29.901Z,95347.95
2022-10-04T13:47:56.226Z,95352.98
2022-10-04T13:50:22.577Z,95353.52
2022-10-04T13:52:48.913Z,95348.33
2022-10-04T13:55:15.264Z,95354.98
2022-10-04T13:57:41.629Z,95354.09
2022-10-04T14:00:07.983Z,95355.30
2022-10-04T14:02:34.363Z,95357.80
2022-10-04T14:05:00.679Z,95365.16
2022-10-04T14:07:27.026Z,95369.33
2022-10-04T14:09:53.374Z,95370.75
2022-10-04T14:12:19.779Z,95369.45
2022-10-04T14:14:46.085Z,95369.58
2022-10-04T14:17:12.418Z,95376.52
2022-10-04T14:19:38.780Z,95375.50
2022-10-04T14:22:05.155Z,95380.06
2022-10-04T14:24:33.472Z,95379.30
2022-10-04T14:26:59.849Z,95384.97
2022-10-04T14:29:26.163Z,95384.50
2022-10-04T14:31:52.547Z,95387.64
2022-10-04T14:34:18.855Z,95392.29
2022-10-04T14:36:45.293Z,95397.58
2022-10-04T14:39:11.657Z,95397.58
2022-10-04T14:41:37.996Z,95400.58
2022-10-04T14:44:04.373Z,95395.38
2022-10-04T14:46:30.722Z,95396.02
2022-10-04T14:48:57.076Z,95400.44
2022-10-04T14:51:23.464Z,95401.05
2022-10-04T14:53:49.801Z,95409.95
2022-10-04T14:56:16.158Z,95415.02
2022-10-04T14:58:42.522Z,95420.11
2022-10-04T15:01:08.901Z,95420.11
2022-10-04T15:03:35.225Z,95420.23
2022-10-04T15:06:01.577Z,95423.73
2022-10-04T15:08:27.923Z,95427.00
2022-10-04T15:10:54.271Z,95439.16
2022-10-04T15:13:20.613Z,95433.02
2022-10-04T15:15:47.129Z,95443.41
2022-10-04T15:18:13.353Z,95447.64
2022-10-04T15:20:39.681Z,95452.41
2022-10-04T15:23:06.021Z,95456.03
2022-10-04T15:25:32.363Z,95465.20
2022-10-04T15:27:58.781Z,95460.75
2022-10-04T15:30:25.059Z,95465.91
2022-10-04T15:32:51.398Z,95464.33
2022-10-04T15:35:17.750Z,95464.64
2022-10-04T15:37:44.114Z,95466.48
2022-10-04T15:40:10.443Z,95469.23
2022-10-04T15:42:36.797Z,95469.02
2022-10-04T15:45:03.174Z,95473.19
2022-10-04T15:47:29.529Z,95474.16
2022-10-04T15:49:55.929Z,95477.23
2022-10-04T15:52:22.380Z,95476.69
2022-10-04T15:54:49.741Z,95481.59
2022-10-04T15:57:16.083Z,95490.69
2022-10-04T15:59:42.422Z,95486.44
2022-10-04T16:02:08.929Z,95494.58
2022-10-04T16:04:35.190Z,95496.42
2022-10-04T16:07:01.543Z,95498.08
2022-10-04T16:09:27.882Z,95507.20
2022-10-04T16:11:54.227Z,95509.99
2022-10-04T16:14:20.559Z,95513.59
2022-10-04T16:16:47.143Z,95509.59
2022-10-04T16:19:13.251Z,95514.03
2022-10-04T16:21:39.628Z,95515.73
2022-10-04T16:24:05.970Z,95521.91
2022-10-04T16:26:32.312Z,95525.09
2022-10-04T16:28:58.654Z,95528.66
2022-10-04T16:31:25.073Z,95526.93
2022-10-04T16:33:51.342Z,95534.36
2022-10-04T16:36:17.687Z,95536.22
2022-10-04T16:38:44.026Z,95542.50
2022-10-04T16:41:10.377Z,95543.71
2022-10-04T16:43:36.713Z,95546.19
2022-10-04T16:46:03.118Z,95552.03
2022-10-04T16:48:29.396Z,95552.39
2022-10-04T16:50:55.733Z,95558.25
2022-10-04T16:53:22.076Z,95557.70
2022-10-04T16:55:48.481Z,95564.33
2022-10-04T16:58:14.823Z,95564.74
2022-10-04T17:00:42.339Z,95564.42
2022-10-04T17:03:07.507Z,95573.77
2022-10-04T17:05:33.851Z,95569.64
2022-10-04T17:08:00.182Z,95574.83
2022-10-04T17:10:26.522Z,95580.20
2022-10-04T17:12:52.851Z,95586.00
2022-10-04T17:15:19.194Z,95588.63
2022-10-04T17:17:45.558Z,95589.63
2022-10-04T17:20:11.898Z,95594.49
2022-10-04T17:22:38.237Z,95598.50
2022-10-04T17:25:04.585Z,95595.70
2022-10-04T17:27:30.921Z,95603.60
2022-10-04T17:29:57.265Z,95607.49
2022-10-04T17:32:23.597Z,95605.72
2022-10-04T17:34:49.942Z,95607.79
2022-10-04T17:37:16.308Z,95608.43
2022-10-04T17:39:42.656Z,95615.52
2022-10-04T17:42:09.002Z,95610.09
2022-10-04T17:44:35.336Z,95612.44
2022-10-04T17:47:01.666Z,95609.49
2022-10-04T17:49:28.011Z,95613.27
2022-10-04T17:51:54.346Z,95620.46
2022-10-04T17:54:20.688Z,95619.75
2022-10-04T17:56:47.467Z,95624.58
2022-10-04T17:59:13.356Z,95628.88
2022-10-04T18:01:39.718Z,95626.41
2022-10-04T18:04:06.038Z,95635.02
2022-10-04T18:06:32.371Z,95632.42
2022-10-04T18:08:58.722Z,95643.09
2022-10-04T18:11:25.062Z,95642.14
2022-10-04T18:13:51.411Z,95646.76
2022-10-04T18:16:17.868Z,95647.94
2022-10-04T18:18:44.160Z,95645.94
2022-10-04T18:21:10.497Z,95652.05
2022-10-04T18:23:36.842Z,95651.83
2022-10-04T18:26:03.192Z,95653.92
2022-10-04T18:28:29.597Z,95654.07
2022-10-04T18:30:55.924Z,95657.81
2022-10-04T18:33:26.112Z,95657.61
2022-10-04T18:35:48.636Z,95659.02
2022-10-04T18:38:14.964Z,95659.28
2022-10-04T18:40:41.340Z,95656.12
2022-10-04T18:43:07.676Z,95655.77
2022-10-04T18:45:34.018Z,95655.87
2022-10-04T18:48:00.388Z,95655.08
2022-10-04T18:50:26.750Z,95656.37
2022-10-04T18:52:53.099Z,95663.23
2022-10-04T18:55:19.464Z,95666.66
2022-10-04T18:57:45.809Z,95668.84
2022-10-04T19:00:12.163Z,95668.98
2022-10-04T19:02:38.511Z,95672.52
2022-10-04T19:05:04.862Z,95669.93
2022-10-04T19:07:31.235Z,95668.52
2022-10-04T19:09:57.585Z,95676.62
2022-10-04T19:12:23.953Z,95675.00
2022-10-04T19:14:50.296Z,95673.77
2022-10-04T19:17:16.645Z,95677.92
2022-10-04T19:19:42.989Z,95676.30
2022-10-04T19:22:09.324Z,95663.96
2022-10-04T19:24:35.665Z,95675.27
2022-10-04T19:27:02.001Z,95677.14
2022-10-04T19:29:28.352Z,95684.45
2022-10-04T19:31:54.749Z,95687.30
2022-10-04T19:34:21.053Z,95686.01
2022-10-04T19:36:47.799Z,95665.00
2022-10-04T19:39:13.733Z,95690.25
2022-10-04T19:41:40.098Z,95688.13
2022-10-04T19:44:08.865Z,95691.55
2022-10-04T19:46:35.198Z,95678.17
2022-10-04T19:49:01.533Z,95698.97
2022-10-04T19:51:27.882Z,95696.17
2022-10-04T19:53:54.232Z,95695.34
2022-10-04T19:56:20.572Z,95687.34
2022-10-04T19:58:46.920Z,95689.80
2022-10-04T20:01:13.315Z,95696.53
2022-10-04T20:03:39.615Z,95688.24
2022-10-04T20:06:05.947Z,95687.67
2022-10-04T20:08:32.282Z,95693.47
2022-10-04T20:10:58.628Z,95698.55
2022-10-04T20:13:24.972Z,95716.34
2022-10-04T20:15:51.311Z,95702.37
2022-10-04T20:18:17.649Z,95715.05
2022-10-04T20:20:47.269Z,95718.36
2022-10-04T20:23:13.613Z,95717.43
2022-10-04T20:25:39.951Z,95725.78
2022-10-04T20:28:06.347Z,95725.20
2022-10-04T20:30:32.629Z,95728.73
2022-10-04T20:32:58.971Z,95729.34
2022-10-04T20:35:25.312Z,95725.31
2022-10-04T20:38:07.535Z,95723.55
2022-10-04T20:40:17.992Z,95724.98
2022-10-04T20:42:44.336Z,95726.39
2022-10-04T20:45:10.667Z,95727.48
2022-10-04T20:47:37.065Z,95733.70
2022-10-04T20:50:03.371Z,95737.48
2022-10-04T20:52:29.717Z,95732.66
2022-10-04T20:54:56.049Z,95715.17
2022-10-04T20:57:22.431Z,95725.03
2022-10-04T20:59:48.764Z,95732.98
2022-10-04T21:02:15.196Z,95737.59
2022-10-04T21:04:41.500Z,95738.06
2022-10-04T21:07:07.840Z,95747.14
2022-10-04T21:09:34.169Z,95739.61
2022-10-04T21:12:00.505Z,95753.05
2022-10-04T21:14:26.848Z,95745.88
2022-10-04T21:16:55.592Z,95756.50
2022-10-04T21:19:19.519Z,95757.80
2022-10-04T21:21:45.892Z,95752.72
2022-10-04T21:24:12.229Z,95755.89
2022-10-04T21:26:38.569Z,95755.20
2022-10-04T21:29:04.906Z,95757.08
2022-10-04T21:31:31.314Z,95760.97
2022-10-04T21:33:57.588Z,95761.77
2022-10-04T21:36:25.132Z,95761.08
2022-10-04T21:38:50.276Z,95762.38
2022-10-04T21:41:16.620Z,95752.61
2022-10-04T21:43:42.959Z,95752.61
2022-10-04T21:46:09.384Z,95756.00
2022-10-04T21:48:35.679Z,95756.14
2022-10-04T21:51:02.077Z,95756.00
2022-10-04T21:53:28.405Z,95751.31
2022-10-04T21:55:54.779Z,95751.31
2022-10-04T21:58:22.100Z,95759.81
2022-10-04T22:00:47.549Z,95755.45
2022-10-04T22:03:15.039Z,95750.27
2022-10-04T22:05:40.155Z,95757.08
2022-10-04T22:08:06.500Z,95766.55
2022-10-04T22:10:32.839Z,95766.41
2022-10-04T22:12:59.169Z,95769.39
2022-10-04T22:15:25.512Z,95769.71
2022-10-04T22:17:51.845Z,95767.73
2022-10-04T22:20:18.209Z,95768.89
2022-10-04T22:22:44.543Z,95780.33
2022-10-04T22:25:10.889Z,95780.33
2022-10-04T22:27:37.226Z,95779.50
2022-10-04T22:30:04.689Z,95769.16
2022-10-04T22:32:29.943Z,95770.09
2022-10-04T22:34:56.293Z,95770.09
2022-10-04T22:37:22.654Z,95785.52
2022-10-04T22:39:48.997Z,95769.88
2022-10-04T22:42:15.333Z,95765.16
2022-10-04T22:44:42.678Z,95784.47
2022-10-04T22:47:08.028Z,95786.23
2022-10-04T22:49:34.368Z,95784.47
2022-10-04T22:52:01.515Z,95793.07
2022-10-04T22:54:27.849Z,95795.30
2022-10-04T22:56:56.133Z,95801.78
2022-10-04T22:59:20.533Z,95801.78
2022-10-04T23:01:46.870Z,95801.56
2022-10-04T23:04:13.258Z,95808.76
2022-10-04T23:06:39.606Z,95808.76
2022-10-04T23:09:05.941Z,95804.05
2022-10-04T23:11:32.286Z,95804.05
2022-10-04T23:13:58.627Z,95798.36
2022-10-04T23:16:25.038Z,95799.11
2022-10-04T23:18:51.299Z,95799.11
2022-10-04T23:21:17.643Z,95798.14
2022-10-04T23:23:43.982Z,95798.14
2022-10-04T23:26:10.361Z,95797.92
2022-10-04T23:28:36.768Z,95797.92
2022-10-04T23:31:03.095Z,95804.40
2022-10-04T23:33:29.426Z,95805.08
2022-10-04T23:35:55.770Z,95800.97
2022-10-04T23:38:23.295Z,95800.86
2022-10-04T23:40:48.447Z,95809.36
2022-10-04T23:43:14.794Z,95813.47
2022-10-04T23:45:41.161Z,95818.18
2022-10-04T23:48:07.472Z,95814.77
2022-10-04T23:50:33.807Z,95800.64
2022-10-04T23:53:00.151Z,95810.98
2022-10-04T23:55:26.482Z,95810.98
2022-10-04T23:57:52.824Z,95803.70
